Danbury, Texas
Current Conditions -  °F | °C
As of 3:14 PM on Saturday 22 Nov 2014 (Local Time) from KLBX Reporting Station
Overcast Overcast  
Wind Chill: 70°   Ceiling: 9000
Heat Index: 70°   Visibility: 10mi
Dew Point: 65°   Wind: 15mph
Humidity: 84%   Direction: 180°S
Pressure: 29.85"   Gusts: 25mph
Location:  29.23°N, 95.34°W
Report Text: KLBX 222114Z AUTO 18013G22KT 10SM SCT016 OVC090 21/18 A2985 RMK AO2 T02110183
Loading
Personal Weather Stations






























Interactive Weather Map New forecast layout! Learn more

10-Day Weather Forecast

Advertisements
Track Severe Weather on mobile